Time;durP1;ratioP1;P1;durP2;ratioP2;P2;SDS_P1;SDS_P2;PMS_P1;PMS_P2;Temp;Humidity;BMP_temperature;BMP_pressure;BME280_temperature;BME280_humidity;BME280_pressure;Samples;Min_cycle;Max_cycle;Signal;HPM_P1;HPM_P2
2023/06/09 00:01:53;;;;;;;;;;;22.10;44.30;;;;;;5017503;28;19921;-62
2023/06/09 00:04:23;;;;;;;;;;;22.10;44.30;;;;;;5016666;28;19922;-61
2023/06/09 00:06:51;;;;;;;;;;;22.10;44.30;;;;;;5017089;28;19944;-62
2023/06/09 00:09:18;;;;;;;;;;;22.10;44.30;;;;;;5016535;28;20379;-61
2023/06/09 00:11:46;;;;;;;;;;;22.10;44.30;;;;;;5017129;28;19925;-62
2023/06/09 00:14:13;;;;;;;;;;;22.10;44.30;;;;;;5032168;28;19921;-62
2023/06/09 00:16:46;;;;;;;;;;;22.10;44.30;;;;;;5033985;28;20252;-62
2023/06/09 00:19:13;;;;;;;;;;;22.10;44.30;;;;;;5016488;28;19922;-61
2023/06/09 00:21:40;;;;;;;;;;;22.00;44.20;;;;;;5018155;28;19922;-63
2023/06/09 00:24:07;;;;;;;;;;;22.10;44.30;;;;;;5016407;28;19926;-63
2023/06/09 00:26:34;;;;;;;;;;;22.10;44.30;;;;;;5018141;28;19969;-61
2023/06/09 00:29:02;;;;;;;;;;;22.10;44.30;;;;;;5016488;28;21058;-61
2023/06/09 00:31:29;;;;;;;;;;;22.10;44.30;;;;;;5017380;28;19922;-61
2023/06/09 00:33:57;;;;;;;;;;;22.00;44.30;;;;;;5016323;28;19929;-61
2023/06/09 00:36:24;;;;;;;;;;;22.00;44.30;;;;;;5016647;28;20275;-61
2023/06/09 00:38:51;;;;;;;;;;;22.10;44.40;;;;;;5006687;28;19922;-61
2023/06/09 00:41:18;;;;;;;;;;;22.00;44.30;;;;;;4997784;28;19921;-62
2023/06/09 00:43:46;;;;;;;;;;;22.10;44.40;;;;;;5003826;28;19921;-62
2023/06/09 00:46:13;;;;;;;;;;;22.00;44.20;;;;;;5017158;28;19921;-63
2023/06/09 00:48:39;;;;;;;;;;;22.10;44.30;;;;;;5016057;28;19922;-60
2023/06/09 00:51:08;;;;;;;;;;;22.00;44.30;;;;;;5015830;28;19922;-62
2023/06/09 00:53:35;;;;;;;;;;;22.10;44.40;;;;;;5015773;28;20025;-61
2023/06/09 00:56:01;;;;;;;;;;;22.00;44.30;;;;;;5007310;28;19977;-61
2023/06/09 00:58:28;;;;;;;;;;;22.00;44.30;;;;;;4997180;28;19928;-61
2023/06/09 01:00:57;;;;;;;;;;;22.00;44.30;;;;;;4996854;28;19922;-61
2023/06/09 01:03:24;;;;;;;;;;;22.00;44.30;;;;;;4996874;28;19926;-62
2023/06/09 01:05:51;;;;;;;;;;;22.00;44.30;;;;;;4996690;28;19922;-61
2023/06/09 01:08:21;;;;;;;;;;;22.00;44.30;;;;;;4996285;28;19921;-62
2023/06/09 01:10:51;;;;;;;;;;;22.00;44.30;;;;;;4995945;28;19965;-62
2023/06/09 01:13:21;;;;;;;;;;;22.00;44.30;;;;;;4995332;28;20016;-62
2023/06/09 01:15:50;;;;;;;;;;;22.00;44.30;;;;;;4995686;28;19944;-61
2023/06/09 01:18:17;;;;;;;;;;;22.00;44.40;;;;;;5006343;28;19922;-63
2023/06/09 01:20:49;;;;;;;;;;;22.00;44.30;;;;;;5016840;28;20008;-61
2023/06/09 01:23:16;;;;;;;;;;;22.00;44.30;;;;;;5013225;28;19925;-61
2023/06/09 01:25:45;;;;;;;;;;;22.00;44.30;;;;;;4996616;28;19921;-61
2023/06/09 01:28:12;;;;;;;;;;;22.00;44.40;;;;;;4995765;28;19921;-62
2023/06/09 01:30:40;;;;;;;;;;;22.00;44.30;;;;;;5010521;28;19925;-62
2023/06/09 01:33:08;;;;;;;;;;;22.00;44.40;;;;;;5014961;28;19940;-61
2023/06/09 01:35:35;;;;;;;;;;;22.00;44.40;;;;;;4994384;28;19922;-60
2023/06/09 01:38:03;;;;;;;;;;;22.00;44.40;;;;;;4995420;28;19953;-61
2023/06/09 01:40:30;;;;;;;;;;;22.00;44.40;;;;;;5011256;28;20031;-61
2023/06/09 01:42:59;;;;;;;;;;;22.00;44.40;;;;;;5011062;28;20012;-61
2023/06/09 01:45:26;;;;;;;;;;;22.00;44.40;;;;;;5013043;28;19922;-61
2023/06/09 01:47:52;;;;;;;;;;;22.00;44.40;;;;;;5015554;28;19922;-61
2023/06/09 01:50:20;;;;;;;;;;;22.00;44.40;;;;;;5015125;28;19967;-60
2023/06/09 01:52:48;;;;;;;;;;;22.00;44.40;;;;;;5015519;28;20340;-61
2023/06/09 01:55:16;;;;;;;;;;;22.00;44.50;;;;;;5031851;28;19921;-60
2023/06/09 01:57:43;;;;;;;;;;;22.00;44.50;;;;;;5013898;28;19926;-61
2023/06/09 02:00:15;;;;;;;;;;;22.00;44.50;;;;;;5012820;28;19975;-60
2023/06/09 02:02:42;;;;;;;;;;;22.00;44.50;;;;;;5014480;28;19921;-61
2023/06/09 02:05:15;;;;;;;;;;;22.00;44.50;;;;;;5014360;28;19948;-60
2023/06/09 02:07:44;;;;;;;;;;;22.00;45.10;;;;;;5029087;28;20390;-59
2023/06/09 02:10:11;;;;;;;;;;;22.00;44.50;;;;;;5012428;28;19921;-59
2023/06/09 02:12:37;;;;;;;;;;;22.00;44.50;;;;;;5009492;28;19925;-59
2023/06/09 02:15:07;;;;;;;;;;;21.90;44.40;;;;;;5012824;28;19976;-58
2023/06/09 02:17:39;;;;;;;;;;;22.00;44.50;;;;;;5013706;28;19928;-60
2023/06/09 02:20:08;;;;;;;;;;;22.00;44.50;;;;;;5002929;28;19922;-59
2023/06/09 02:22:35;;;;;;;;;;;22.00;44.50;;;;;;5012346;28;19921;-59
2023/06/09 02:25:02;;;;;;;;;;;21.90;44.40;;;;;;5014063;28;19921;-61
2023/06/09 02:27:29;;;;;;;;;;;22.00;45.10;;;;;;5012320;28;19921;-61
2023/06/09 02:29:56;;;;;;;;;;;22.00;44.50;;;;;;5013905;28;19921;-61
2023/06/09 02:32:23;;;;;;;;;;;22.00;44.50;;;;;;5013925;28;20352;-61
2023/06/09 02:34:51;;;;;;;;;;;21.90;44.40;;;;;;5013574;28;19921;-61
2023/06/09 02:37:18;;;;;;;;;;;22.00;44.50;;;;;;5013138;28;19996;-59
2023/06/09 02:39:44;;;;;;;;;;;22.00;44.50;;;;;;5012751;28;20261;-60
2023/06/09 02:42:11;;;;;;;;;;;21.90;44.40;;;;;;5012934;28;19921;-61
2023/06/09 02:44:38;;;;;;;;;;;22.00;44.50;;;;;;5028016;28;19929;-61
2023/06/09 02:47:05;;;;;;;;;;;22.00;44.50;;;;;;5013371;28;19992;-61
2023/06/09 02:49:31;;;;;;;;;;;21.90;44.50;;;;;;5013809;28;19922;-61
2023/06/09 02:52:00;;;;;;;;;;;21.90;44.50;;;;;;5014462;28;19925;-61
2023/06/09 02:54:27;;;;;;;;;;;21.90;44.50;;;;;;5030568;28;19929;-61
2023/06/09 02:56:53;;;;;;;;;;;21.90;44.50;;;;;;5011268;28;20016;-61
2023/06/09 02:59:20;;;;;;;;;;;21.90;44.50;;;;;;5014652;28;19976;-61
2023/06/09 03:01:47;;;;;;;;;;;22.00;44.50;;;;;;5029666;28;19921;-60
2023/06/09 03:04:17;;;;;;;;;;;21.90;44.50;;;;;;5014942;28;19929;-62
2023/06/09 03:06:44;;;;;;;;;;;21.90;44.50;;;;;;5029665;28;19928;-60
2023/06/09 03:09:12;;;;;;;;;;;21.90;44.50;;;;;;5011759;28;19987;-61
2023/06/09 03:11:39;;;;;;;;;;;21.90;44.50;;;;;;5013935;28;19929;-60
2023/06/09 03:14:07;;;;;;;;;;;21.90;44.50;;;;;;5013272;28;19929;-61
2023/06/09 03:16:33;;;;;;;;;;;21.90;44.50;;;;;;5014813;28;19921;-61
2023/06/09 03:19:00;;;;;;;;;;;21.90;44.50;;;;;;5011231;28;19922;-61
2023/06/09 03:21:27;;;;;;;;;;;21.90;44.50;;;;;;5012650;28;19988;-62
2023/06/09 03:23:54;;;;;;;;;;;21.90;44.50;;;;;;5013126;28;19922;-61
2023/06/09 03:26:23;;;;;;;;;;;21.90;44.40;;;;;;5011693;28;19922;-60
2023/06/09 03:28:50;;;;;;;;;;;21.90;44.40;;;;;;5012784;28;19932;-61
2023/06/09 03:31:17;;;;;;;;;;;21.90;44.40;;;;;;5010571;28;19929;-61
2023/06/09 03:33:44;;;;;;;;;;;21.90;44.40;;;;;;5013683;28;20032;-61
2023/06/09 03:36:11;;;;;;;;;;;21.90;44.40;;;;;;4992017;28;19922;-61
2023/06/09 03:38:38;;;;;;;;;;;21.90;44.40;;;;;;5014509;28;19925;-62
2023/06/09 03:41:05;;;;;;;;;;;21.90;44.40;;;;;;5014298;28;20303;-61
2023/06/09 03:43:33;;;;;;;;;;;21.90;44.30;;;;;;5013499;28;20360;-61
2023/06/09 03:46:00;;;;;;;;;;;21.90;44.30;;;;;;5012757;28;19926;-61
2023/06/09 03:48:26;;;;;;;;;;;21.90;44.40;;;;;;5010933;28;19945;-60
2023/06/09 03:50:53;;;;;;;;;;;21.90;44.30;;;;;;5013472;28;20386;-61
2023/06/09 03:53:20;;;;;;;;;;;21.90;44.40;;;;;;5012723;28;19925;-61
2023/06/09 03:55:47;;;;;;;;;;;21.90;44.30;;;;;;5014082;28;19992;-59
2023/06/09 03:58:14;;;;;;;;;;;21.90;44.40;;;;;;5012211;28;19927;-61
2023/06/09 04:00:42;;;;;;;;;;;21.90;44.40;;;;;;5013323;28;19929;-61
2023/06/09 04:03:09;;;;;;;;;;;21.90;44.40;;;;;;5014117;28;20263;-61
2023/06/09 04:05:36;;;;;;;;;;;21.90;44.40;;;;;;5011000;28;19921;-59
2023/06/09 04:08:03;;;;;;;;;;;21.90;44.40;;;;;;4997722;28;19921;-60
2023/06/09 04:10:29;;;;;;;;;;;21.90;44.40;;;;;;4993820;28;20016;-60
2023/06/09 04:12:56;;;;;;;;;;;21.90;44.40;;;;;;4992664;28;20381;-60
2023/06/09 04:15:23;;;;;;;;;;;21.90;44.40;;;;;;4992817;28;20005;-60
2023/06/09 04:17:51;;;;;;;;;;;21.90;44.40;;;;;;4994155;28;20020;-61
2023/06/09 04:20:22;;;;;;;;;;;21.90;44.40;;;;;;5009158;28;19922;-62
2023/06/09 04:22:49;;;;;;;;;;;21.90;44.40;;;;;;5000481;28;19921;-61
2023/06/09 04:25:16;;;;;;;;;;;21.90;44.40;;;;;;5011093;28;20355;-61
2023/06/09 04:27:43;;;;;;;;;;;21.90;44.40;;;;;;5012761;28;19968;-61
2023/06/09 04:30:10;;;;;;;;;;;21.90;44.40;;;;;;5012502;28;19925;-61
2023/06/09 04:32:36;;;;;;;;;;;21.90;44.40;;;;;;5012025;28;19921;-61
2023/06/09 04:35:05;;;;;;;;;;;21.90;44.40;;;;;;5017315;28;19944;-60
2023/06/09 04:37:32;;;;;;;;;;;21.90;44.40;;;;;;5014806;28;20016;-61
2023/06/09 04:39:59;;;;;;;;;;;21.90;44.40;;;;;;5015868;28;19921;-60
2023/06/09 04:42:25;;;;;;;;;;;21.90;44.40;;;;;;5017197;28;19921;-60
2023/06/09 04:44:53;;;;;;;;;;;21.90;44.50;;;;;;5016734;28;20398;-61
2023/06/09 04:47:20;;;;;;;;;;;21.90;44.40;;;;;;5014725;28;19925;-60
2023/06/09 04:49:49;;;;;;;;;;;21.90;44.40;;;;;;5015730;28;20012;-60
2023/06/09 04:52:20;;;;;;;;;;;21.90;44.40;;;;;;5015722;28;19968;-60
2023/06/09 04:54:49;;;;;;;;;;;21.90;44.30;;;;;;5015807;28;20296;-61
2023/06/09 04:57:17;;;;;;;;;;;21.90;44.20;;;;;;5014348;28;19967;-60
2023/06/09 04:59:45;;;;;;;;;;;21.90;44.20;;;;;;4995254;28;20431;-60
2023/06/09 05:02:11;;;;;;;;;;;21.90;44.20;;;;;;4996022;28;19929;-61
2023/06/09 05:04:38;;;;;;;;;;;21.90;44.20;;;;;;4996576;28;19922;-61
2023/06/09 05:07:06;;;;;;;;;;;21.90;44.20;;;;;;4997287;28;19944;-60
2023/06/09 05:09:34;;;;;;;;;;;21.90;44.20;;;;;;5024437;28;19980;-61
2023/06/09 05:12:01;;;;;;;;;;;21.90;44.20;;;;;;5016363;28;20017;-60
2023/06/09 05:14:28;;;;;;;;;;;21.90;44.10;;;;;;5015385;28;19921;-61
2023/06/09 05:16:55;;;;;;;;;;;21.90;44.10;;;;;;5016742;28;19925;-60
2023/06/09 05:19:22;;;;;;;;;;;21.90;44.10;;;;;;5001715;28;20101;-60
2023/06/09 05:21:48;;;;;;;;;;;21.90;44.10;;;;;;4998139;28;19969;-60
2023/06/09 05:24:15;;;;;;;;;;;21.90;44.10;;;;;;5013854;28;19921;-61
2023/06/09 05:26:45;;;;;;;;;;;21.90;44.10;;;;;;5015463;28;19921;-61
2023/06/09 05:29:12;;;;;;;;;;;21.90;44.10;;;;;;5015547;28;19936;-61
2023/06/09 05:31:38;;;;;;;;;;;21.90;44.10;;;;;;5016031;28;19930;-60
2023/06/09 05:34:05;;;;;;;;;;;21.80;44.10;;;;;;5015375;28;19945;-60
2023/06/09 05:36:32;;;;;;;;;;;21.90;44.10;;;;;;5016120;28;19929;-60
2023/06/09 05:39:00;;;;;;;;;;;21.90;44.10;;;;;;5014837;28;19921;-60
2023/06/09 05:41:26;;;;;;;;;;;21.90;44.10;;;;;;5015040;28;19925;-61
2023/06/09 05:43:57;;;;;;;;;;;21.80;44.10;;;;;;5014872;28;19972;-61
2023/06/09 05:46:24;;;;;;;;;;;21.90;44.10;;;;;;5015486;28;19987;-61
2023/06/09 05:48:51;;;;;;;;;;;21.90;44.20;;;;;;5014442;28;19925;-60
2023/06/09 05:51:18;;;;;;;;;;;21.90;44.10;;;;;;5010822;28;20331;-61
2023/06/09 05:53:45;;;;;;;;;;;21.90;44.10;;;;;;5012235;28;20264;-62
2023/06/09 05:56:16;;;;;;;;;;;21.90;44.10;;;;;;4994220;28;20016;-60
2023/06/09 05:58:44;;;;;;;;;;;21.90;44.20;;;;;;5008852;28;19928;-61
2023/06/09 06:01:13;;;;;;;;;;;21.90;44.10;;;;;;5013294;28;19971;-60
2023/06/09 06:03:41;;;;;;;;;;;21.90;44.10;;;;;;5013320;28;19926;-60
2023/06/09 06:06:08;;;;;;;;;;;21.90;44.10;;;;;;5015162;28;19961;-60
2023/06/09 06:08:35;;;;;;;;;;;21.90;44.10;;;;;;4994856;28;19928;-60
2023/06/09 06:11:02;;;;;;;;;;;21.90;44.10;;;;;;5011275;28;19928;-60
2023/06/09 06:13:29;;;;;;;;;;;21.90;44.10;;;;;;5020699;28;19975;-60
2023/06/09 06:15:55;;;;;;;;;;;21.90;44.00;;;;;;5014656;28;19921;-60
2023/06/09 06:18:23;;;;;;;;;;;21.90;44.00;;;;;;5010984;28;19921;-62
2023/06/09 06:20:50;;;;;;;;;;;21.90;44.00;;;;;;5013962;28;19928;-61
2023/06/09 06:23:17;;;;;;;;;;;21.90;44.10;;;;;;5015381;28;19921;-62
2023/06/09 06:25:44;;;;;;;;;;;21.90;44.10;;;;;;5015326;28;19921;-62
2023/06/09 06:28:10;;;;;;;;;;;21.90;44.10;;;;;;5014821;28;19925;-61
2023/06/09 06:30:38;;;;;;;;;;;21.90;44.10;;;;;;5015559;28;19921;-63
2023/06/09 06:33:05;;;;;;;;;;;21.90;44.10;;;;;;5013807;28;20364;-62
2023/06/09 06:35:33;;;;;;;;;;;21.90;44.10;;;;;;5013940;28;19929;-63
2023/06/09 06:38:00;;;;;;;;;;;21.90;44.10;;;;;;5031250;28;19921;-62
2023/06/09 06:40:27;;;;;;;;;;;21.90;44.10;;;;;;5047020;28;19928;-62
2023/06/09 06:42:53;;;;;;;;;;;21.90;44.10;;;;;;5015029;28;19922;-63
2023/06/09 06:45:20;;;;;;;;;;;22.00;44.20;;;;;;5013937;28;19921;-64
2023/06/09 06:47:49;;;;;;;;;;;22.00;44.20;;;;;;5014659;28;19944;-63
2023/06/09 06:50:16;;;;;;;;;;;22.00;44.20;;;;;;5014897;28;19964;-63
2023/06/09 06:52:44;;;;;;;;;;;22.00;44.20;;;;;;5014855;28;19925;-63
2023/06/09 06:55:11;;;;;;;;;;;22.00;44.20;;;;;;5013570;28;19972;-63
2023/06/09 06:57:38;;;;;;;;;;;22.00;44.20;;;;;;5013407;28;19921;-63
2023/06/09 07:00:09;;;;;;;;;;;22.00;44.20;;;;;;5014526;28;19925;-63
2023/06/09 07:02:36;;;;;;;;;;;22.00;44.20;;;;;;5013592;28;19921;-63
2023/06/09 07:05:03;;;;;;;;;;;22.00;44.20;;;;;;5013098;28;19925;-61
2023/06/09 07:07:29;;;;;;;;;;;22.00;44.20;;;;;;5013554;28;19971;-61
2023/06/09 07:09:57;;;;;;;;;;;22.00;44.20;;;;;;5014523;28;19921;-63
2023/06/09 07:12:24;;;;;;;;;;;22.10;44.30;;;;;;5029971;28;19999;-61
2023/06/09 07:14:51;;;;;;;;;;;22.00;44.20;;;;;;5014303;28;19925;-62
2023/06/09 07:17:18;;;;;;;;;;;22.10;44.30;;;;;;5046309;28;19971;-63
2023/06/09 07:19:45;;;;;;;;;;;22.10;44.30;;;;;;5013402;28;19921;-61
2023/06/09 07:22:11;;;;;;;;;;;22.10;44.30;;;;;;5006743;28;19976;-62
2023/06/09 07:24:38;;;;;;;;;;;22.10;44.30;;;;;;5017646;28;19922;-63
2023/06/09 07:27:07;;;;;;;;;;;22.10;44.30;;;;;;5003400;28;19921;-62
2023/06/09 07:29:35;;;;;;;;;;;22.10;44.30;;;;;;5012778;28;19921;-63
2023/06/09 07:32:02;;;;;;;;;;;22.10;44.40;;;;;;5011300;28;19925;-64
2023/06/09 07:34:29;;;;;;;;;;;22.20;44.40;;;;;;5009797;28;19980;-63
2023/06/09 07:36:56;;;;;;;;;;;22.20;44.40;;;;;;5010780;28;19957;-63
2023/06/09 07:39:23;;;;;;;;;;;22.20;44.40;;;;;;5010075;28;20431;-66
2023/06/09 07:41:50;;;;;;;;;;;22.20;44.40;;;;;;5010875;28;20024;-62
2023/06/09 07:44:18;;;;;;;;;;;22.20;44.40;;;;;;5012376;28;19976;-64
2023/06/09 07:46:45;;;;;;;;;;;22.20;44.50;;;;;;5029338;28;19928;-65
2023/06/09 07:49:13;;;;;;;;;;;22.20;44.50;;;;;;5014157;28;19932;-63
2023/06/09 07:51:42;;;;;;;;;;;22.30;44.60;;;;;;5014006;28;19928;-64
2023/06/09 07:54:08;;;;;;;;;;;22.20;44.50;;;;;;5012845;28;19928;-63
2023/06/09 07:56:36;;;;;;;;;;;22.30;44.60;;;;;;5014114;28;19925;-63
2023/06/09 07:59:03;;;;;;;;;;;22.30;44.70;;;;;;5012700;28;20013;-63
2023/06/09 08:01:32;;;;;;;;;;;22.30;44.60;;;;;;5007436;28;20648;-64
2023/06/09 08:04:01;;;;;;;;;;;22.30;44.60;;;;;;4994511;28;19948;-63
2023/06/09 08:06:28;;;;;;;;;;;22.30;44.70;;;;;;4994128;28;19937;-64
2023/06/09 08:08:55;;;;;;;;;;;22.30;44.70;;;;;;4995411;28;19922;-62
2023/06/09 08:11:22;;;;;;;;;;;22.30;44.70;;;;;;4997363;28;20021;-63
2023/06/09 08:13:48;;;;;;;;;;;22.30;44.70;;;;;;4996690;28;19945;-63
2023/06/09 08:16:15;;;;;;;;;;;22.40;44.80;;;;;;4997155;28;20420;-62
2023/06/09 08:18:43;;;;;;;;;;;22.30;44.80;;;;;;4996747;28;19926;-63
2023/06/09 08:21:11;;;;;;;;;;;22.40;44.90;;;;;;4997878;28;19926;-63
2023/06/09 08:23:37;;;;;;;;;;;22.40;44.90;;;;;;4998050;28;19922;-64
2023/06/09 08:26:04;;;;;;;;;;;22.40;44.80;;;;;;4997172;28;19921;-63
2023/06/09 08:28:31;;;;;;;;;;;22.40;44.90;;;;;;4996837;28;19922;-63
2023/06/09 08:30:58;;;;;;;;;;;22.40;44.90;;;;;;4995861;28;19921;-61
2023/06/09 08:33:26;;;;;;;;;;;22.40;44.90;;;;;;5016807;28;19922;-62
2023/06/09 08:35:54;;;;;;;;;;;22.40;44.90;;;;;;5013967;28;19925;-63
2023/06/09 08:38:21;;;;;;;;;;;22.40;44.90;;;;;;5021658;28;19928;-62
2023/06/09 08:40:47;;;;;;;;;;;22.40;45.00;;;;;;5014029;28;19921;-62
2023/06/09 08:43:14;;;;;;;;;;;22.40;44.90;;;;;;5020110;28;20260;-62
2023/06/09 08:45:41;;;;;;;;;;;22.40;44.90;;;;;;5027803;28;19921;-63
2023/06/09 08:48:08;;;;;;;;;;;22.40;45.00;;;;;;5019428;28;19979;-64
2023/06/09 08:50:41;;;;;;;;;;;22.40;45.00;;;;;;5015264;28;19972;-61
2023/06/09 08:53:09;;;;;;;;;;;22.40;45.00;;;;;;5030996;28;19921;-64
2023/06/09 08:55:36;;;;;;;;;;;22.40;45.00;;;;;;5018387;28;19922;-62
2023/06/09 08:58:03;;;;;;;;;;;22.40;45.00;;;;;;5031139;28;19933;-63
2023/06/09 09:00:30;;;;;;;;;;;22.50;45.10;;;;;;5020560;28;20059;-62
2023/06/09 09:02:57;;;;;;;;;;;22.50;45.10;;;;;;5020903;28;19921;-63
2023/06/09 09:05:23;;;;;;;;;;;22.50;45.10;;;;;;5035713;28;19922;-62
2023/06/09 09:07:50;;;;;;;;;;;22.50;45.10;;;;;;5036023;28;19928;-62
2023/06/09 09:10:20;;;;;;;;;;;22.50;45.10;;;;;;5021812;28;19922;-63
2023/06/09 09:12:47;;;;;;;;;;;22.50;45.10;;;;;;5010889;28;19922;-65
2023/06/09 09:15:15;;;;;;;;;;;22.50;45.10;;;;;;5000687;28;19976;-63
2023/06/09 09:17:42;;;;;;;;;;;22.50;45.10;;;;;;4999845;28;19928;-65
2023/06/09 09:20:09;;;;;;;;;;;22.50;45.10;;;;;;4981817;28;19926;-64
2023/06/09 09:22:43;;;;;;;;;;;22.60;45.20;;;;;;4997007;28;19928;-63
2023/06/09 09:25:10;;;;;;;;;;;22.60;45.20;;;;;;5013880;28;19925;-63
2023/06/09 09:27:38;;;;;;;;;;;22.60;45.20;;;;;;4996495;28;20016;-61
2023/06/09 09:30:05;;;;;;;;;;;22.60;45.20;;;;;;4997121;28;19953;-64
2023/06/09 09:32:32;;;;;;;;;;;22.60;45.20;;;;;;4999827;28;19945;-63
2023/06/09 09:34:59;;;;;;;;;;;22.60;45.10;;;;;;4998880;28;19933;-64
2023/06/09 09:37:26;;;;;;;;;;;22.60;45.10;;;;;;4998904;28;19922;-62
2023/06/09 09:39:54;;;;;;;;;;;22.60;45.10;;;;;;4994254;28;19925;-63
2023/06/09 09:42:21;;;;;;;;;;;22.60;45.10;;;;;;4997224;28;19968;-64
2023/06/09 09:44:51;;;;;;;;;;;22.60;45.10;;;;;;4998262;28;20008;-62
2023/06/09 09:47:19;;;;;;;;;;;22.60;45.00;;;;;;4997620;28;19921;-65
2023/06/09 09:49:53;;;;;;;;;;;22.60;45.10;;;;;;4997885;28;20009;-64
2023/06/09 09:52:26;;;;;;;;;;;22.60;45.10;;;;;;4998544;28;19921;-64
2023/06/09 09:54:53;;;;;;;;;;;22.60;45.00;;;;;;4998772;28;19932;-63
2023/06/09 09:57:20;;;;;;;;;;;22.60;45.00;;;;;;5016200;28;20387;-65
2023/06/09 09:59:48;;;;;;;;;;;22.60;44.90;;;;;;5017764;28;19921;-62
2023/06/09 10:02:17;;;;;;;;;;;22.60;44.90;;;;;;5015972;28;19926;-64
2023/06/09 10:04:44;;;;;;;;;;;22.60;44.90;;;;;;5013926;28;19930;-64
2023/06/09 10:07:10;;;;;;;;;;;22.60;44.80;;;;;;5016278;28;19925;-64
2023/06/09 10:09:37;;;;;;;;;;;22.60;44.80;;;;;;5013230;28;19921;-66
2023/06/09 10:12:05;;;;;;;;;;;22.60;44.70;;;;;;5017760;28;20310;-64
2023/06/09 10:14:32;;;;;;;;;;;22.60;44.70;;;;;;5033926;28;19972;-65
2023/06/09 10:17:02;;;;;;;;;;;22.60;44.70;;;;;;4995502;28;19929;-57
2023/06/09 10:19:29;;;;;;;;;;;22.60;44.70;;;;;;5000094;28;19921;-67
2023/06/09 10:21:55;;;;;;;;;;;22.60;44.60;;;;;;4999482;28;19922;-65
2023/06/09 10:24:22;;;;;;;;;;;22.60;44.60;;;;;;4995477;28;19991;-63
2023/06/09 10:26:50;;;;;;;;;;;22.60;44.60;;;;;;4990484;28;19928;-63
2023/06/09 10:29:16;;;;;;;;;;;22.70;44.70;;;;;;4994135;28;19928;-63
2023/06/09 10:31:44;;;;;;;;;;;22.60;44.50;;;;;;5017614;28;19922;-63
2023/06/09 10:34:13;;;;;;;;;;;22.60;44.50;;;;;;4994553;28;19972;-62
2023/06/09 10:36:40;;;;;;;;;;;22.60;44.50;;;;;;5014232;28;19929;-64
2023/06/09 10:39:15;;;;;;;;;;;22.70;44.50;;;;;;5013478;28;20278;-65
2023/06/09 10:41:42;;;;;;;;;;;22.70;44.50;;;;;;5005461;28;20028;-64
2023/06/09 10:44:25;;;;;;;;;;;22.60;44.30;;;;;;5014690;28;19922;-63
2023/06/09 10:46:53;;;;;;;;;;;22.70;44.40;;;;;;4994345;28;19975;-63
2023/06/09 10:49:38;;;;;;;;;;;22.70;44.40;;;;;;4993976;28;19921;-63
2023/06/09 10:52:05;;;;;;;;;;;22.70;44.40;;;;;;4993695;28;19928;-64
2023/06/09 10:54:35;;;;;;;;;;;22.70;44.40;;;;;;4992398;28;20305;-64
2023/06/09 10:57:03;;;;;;;;;;;22.70;44.30;;;;;;4993924;28;19956;-63
2023/06/09 11:00:09;;;;;;;;;;;22.70;44.30;;;;;;4994764;28;20316;-62
2023/06/09 11:02:36;;;;;;;;;;;22.70;44.30;;;;;;4995080;28;19922;-63
2023/06/09 11:05:05;;;;;;;;;;;22.70;44.20;;;;;;4994468;28;19921;-62
2023/06/09 11:07:33;;;;;;;;;;;22.70;44.10;;;;;;4994274;28;19922;-62
2023/06/09 11:10:18;;;;;;;;;;;22.70;44.10;;;;;;4994025;28;19984;-62
2023/06/09 11:12:46;;;;;;;;;;;22.70;44.10;;;;;;4993698;28;19925;-62
2023/06/09 11:15:15;;;;;;;;;;;22.70;44.00;;;;;;4994784;28;20016;-62
2023/06/09 11:17:42;;;;;;;;;;;22.70;43.90;;;;;;5007935;28;19929;-62
2023/06/09 11:20:15;;;;;;;;;;;22.70;43.90;;;;;;4993751;28;20349;-63
2023/06/09 11:22:59;;;;;;;;;;;22.70;43.80;;;;;;4994369;28;19922;-62
2023/06/09 11:25:35;;;;;;;;;;;22.70;43.80;;;;;;4994780;28;19925;-62
2023/06/09 11:28:18;;;;;;;;;;;22.70;43.70;;;;;;5029558;28;19972;-63
2023/06/09 11:30:58;;;;;;;;;;;22.70;43.10;;;;;;5029511;28;19933;-63
2023/06/09 11:33:39;;;;;;;;;;;22.70;42.90;;;;;;5013646;28;19975;-63
2023/06/09 11:36:08;;;;;;;;;;;22.70;42.50;;;;;;5013053;28;19926;-62
2023/06/09 11:38:35;;;;;;;;;;;22.70;42.20;;;;;;5013044;28;19972;-63
2023/06/09 11:41:01;;;;;;;;;;;22.70;40.90;;;;;;5013022;28;19972;-63
2023/06/09 11:43:28;;;;;;;;;;;22.70;41.20;;;;;;4991197;28;19972;-62
2023/06/09 11:46:00;;;;;;;;;;;22.70;41.30;;;;;;4994494;28;19926;-62
2023/06/09 11:48:27;;;;;;;;;;;22.70;40.00;;;;;;4994826;28;20288;-62
2023/06/09 11:50:54;;;;;;;;;;;22.80;40.10;;;;;;4994588;28;19976;-62
2023/06/09 11:53:24;;;;;;;;;;;22.80;39.60;;;;;;4993621;28;19921;-62
2023/06/09 11:55:57;;;;;;;;;;;22.80;39.10;;;;;;4994456;28;20361;-62
2023/06/09 11:58:24;;;;;;;;;;;22.80;39.30;;;;;;4993484;28;19936;-62
2023/06/09 12:00:51;;;;;;;;;;;22.80;39.10;;;;;;4993144;28;19921;-63
2023/06/09 12:03:19;;;;;;;;;;;22.80;39.60;;;;;;4996322;28;19922;-63
2023/06/09 12:05:47;;;;;;;;;;;22.80;39.00;;;;;;5012601;28;19968;-65
2023/06/09 12:08:13;;;;;;;;;;;22.80;39.80;;;;;;5012969;28;19922;-64
2023/06/09 12:10:42;;;;;;;;;;;22.90;40.10;;;;;;5013378;28;20012;-65
2023/06/09 12:13:08;;;;;;;;;;;22.90;40.30;;;;;;5006067;28;19929;-65
2023/06/09 12:15:35;;;;;;;;;;;22.90;40.50;;;;;;4992686;28;19926;-65
2023/06/09 12:18:02;;;;;;;;;;;22.90;40.60;;;;;;4992877;28;20334;-62
2023/06/09 12:20:30;;;;;;;;;;;22.90;40.70;;;;;;5004700;28;20008;-66
2023/06/09 12:22:57;;;;;;;;;;;22.80;40.60;;;;;;5012846;28;19929;-65
2023/06/09 12:25:25;;;;;;;;;;;22.80;40.60;;;;;;4998259;28;19922;-65
2023/06/09 12:27:53;;;;;;;;;;;22.90;40.70;;;;;;5015192;28;19922;-66
2023/06/09 12:30:32;;;;;;;;;;;22.80;40.60;;;;;;5009131;28;20257;-64
2023/06/09 12:33:03;;;;;;;;;;;22.90;40.80;;;;;;4992994;28;19969;-65
2023/06/09 12:35:37;;;;;;;;;;;22.80;40.70;;;;;;4994006;28;19922;-63
2023/06/09 12:38:09;;;;;;;;;;;22.80;40.80;;;;;;4993522;28;19921;-64
2023/06/09 12:40:42;;;;;;;;;;;22.80;40.80;;;;;;4992927;28;19933;-64
2023/06/09 12:43:11;;;;;;;;;;;22.80;40.80;;;;;;4992606;28;19922;-62
2023/06/09 12:45:38;;;;;;;;;;;22.80;40.90;;;;;;5001994;28;19922;-63
2023/06/09 12:48:08;;;;;;;;;;;22.80;40.80;;;;;;5030785;28;19929;-63
2023/06/09 12:50:35;;;;;;;;;;;22.80;40.80;;;;;;5028514;28;19921;-64
2023/06/09 12:53:02;;;;;;;;;;;22.80;40.70;;;;;;5019509;28;19921;-64
2023/06/09 12:55:29;;;;;;;;;;;22.80;40.70;;;;;;5036013;28;19928;-62
2023/06/09 12:57:55;;;;;;;;;;;22.80;40.80;;;;;;5018021;28;19929;-65
2023/06/09 13:00:24;;;;;;;;;;;22.80;40.70;;;;;;5020404;28;19975;-66
2023/06/09 13:02:51;;;;;;;;;;;22.80;40.80;;;;;;5018305;28;19928;-66
2023/06/09 13:05:18;;;;;;;;;;;22.80;40.80;;;;;;5017852;28;19927;-65
2023/06/09 13:07:44;;;;;;;;;;;22.80;40.70;;;;;;5019505;28;19922;-65
2023/06/09 13:10:11;;;;;;;;;;;22.80;40.80;;;;;;5017128;28;19976;-61
2023/06/09 13:12:38;;;;;;;;;;;22.80;40.60;;;;;;5015622;28;20019;-65
2023/06/09 13:15:05;;;;;;;;;;;22.80;40.60;;;;;;5019641;28;19933;-64
2023/06/09 13:17:33;;;;;;;;;;;22.80;40.60;;;;;;5020711;28;19922;-65
2023/06/09 13:20:02;;;;;;;;;;;22.80;40.60;;;;;;5018296;28;19932;-65
2023/06/09 13:22:29;;;;;;;;;;;22.90;40.70;;;;;;5010356;28;19973;-66
2023/06/09 13:24:55;;;;;;;;;;;22.80;40.50;;;;;;5007453;28;19927;-65
2023/06/09 13:27:22;;;;;;;;;;;22.80;40.60;;;;;;5025368;28;19922;-64
2023/06/09 13:29:49;;;;;;;;;;;22.90;40.60;;;;;;5020225;28;19967;-63
2023/06/09 13:32:16;;;;;;;;;;;22.90;40.60;;;;;;5031845;28;19921;-66
2023/06/09 13:34:44;;;;;;;;;;;22.90;40.60;;;;;;5041217;28;19921;-65
2023/06/09 13:37:11;;;;;;;;;;;22.90;40.60;;;;;;5030788;28;19921;-61
2023/06/09 13:39:38;;;;;;;;;;;22.90;40.60;;;;;;5037641;28;19932;-64
2023/06/09 13:42:06;;;;;;;;;;;22.90;40.60;;;;;;5011617;28;19922;-66
2023/06/09 13:44:33;;;;;;;;;;;22.80;40.50;;;;;;5007480;28;19998;-64
2023/06/09 13:47:00;;;;;;;;;;;22.90;40.60;;;;;;5018483;28;19925;-64
2023/06/09 13:49:27;;;;;;;;;;;22.90;40.60;;;;;;5022727;28;19944;-64
2023/06/09 13:51:55;;;;;;;;;;;22.80;40.50;;;;;;5035145;28;19928;-65
2023/06/09 13:54:22;;;;;;;;;;;22.90;40.50;;;;;;5017388;28;19922;-60
2023/06/09 13:56:49;;;;;;;;;;;22.90;40.40;;;;;;5002289;28;19990;-65
2023/06/09 13:59:15;;;;;;;;;;;22.90;40.20;;;;;;5019758;28;19922;-65
2023/06/09 14:01:44;;;;;;;;;;;22.90;40.10;;;;;;4998868;28;19922;-70
2023/06/09 14:04:11;;;;;;;;;;;22.90;40.00;;;;;;5031029;28;20023;-63
2023/06/09 14:06:38;;;;;;;;;;;22.90;39.90;;;;;;5015798;28;20020;-63
2023/06/09 14:09:07;;;;;;;;;;;22.90;39.90;;;;;;5016813;28;19928;-64
2023/06/09 14:11:34;;;;;;;;;;;22.90;39.90;;;;;;5014860;28;19921;-62
2023/06/09 14:14:01;;;;;;;;;;;22.90;39.70;;;;;;5011656;28;19971;-64
2023/06/09 14:16:28;;;;;;;;;;;22.90;39.70;;;;;;5018048;28;19925;-63
2023/06/09 14:18:55;;;;;;;;;;;22.90;39.80;;;;;;5013992;28;19922;-65
2023/06/09 14:21:21;;;;;;;;;;;22.90;39.70;;;;;;5031571;28;19928;-65